ADDS TAF Data INFO
IDs: Format: Raw Decoded Include METARs

Data at: 2013 UTC 22 Apr 2018

KAEG 221947Z 00000KT 10SM BKN150 19/M05 A3015

KAEG 221723Z 2218/2318 VRB04KT P6SM SCT250
  FM222000 17006KT P6SM BKN200
  FM230100 19006KT P6SM BKN150
  FM230700 36006KT P6SM BKN150
  FM231600 22006KT P6SM SCT150